La Châtelettaine - Edition Virtuelle
Course à pied Châtelet, 24/05/2021, BEL
Delhalle - Result
18.134km 
Category
PosNrNameAgeNATLeagueTeamRealTimeTkmMoy.PlaceNamePtsCity
1.610GALERIN DENIS37BELRIWARONVAU59:1159:113:16 18.391sen984WAVRE
2.363MARCHAL GILLES32BELFLEUGAG-RUNATTITUDE59:1859:183:17 18.352sen980GEMBLOUX
3.556RATINCKX JEAN PHILIPPE33BELRIWARIWA1:01:021:01:023:22 17.833sen956OTTIGNIES
4.1083FBOOGAERTS PASCALE56BELRCNAMUR1:01:201:01:203:23 17.741ai2950JAMBES
5.165WIART YVES54BELLES PAHAUTS D'É1:01:591:01:593:26 17.561ve2939DURNAL
6.213DEMUYT RAPHAËL47FRACEPALCEPAL1:03:041:03:043:29 17.251ve1923BRUXELLES
7.492DERAVET BERNARD62BELLES PAHAUTS D'E1:03:191:03:193:30 17.181ve3918DURNAL
8.563DE GREEF BENJAMIN19BELENJAMBEE1:05:001:05:003:36 16.741esp896KRAAINEM
9.129MARTINEAU PHILIPPE43FRAGAG1:06:521:06:523:42 16.282ve1872GEMBLOUX
10.178KLEPPER JULIEN30BELRIWARIWA1:07:211:07:213:43 16.164sen864BIERGES
11.17FDESILLE NICOLE54BELRIWAJTP BLANCS GILE1:07:361:07:363:44 16.102ai2858LA HULPE
12.181GRELET RENAUD38FRACSFMYSTERE1:08:241:08:243:47 15.915sen847UCCLE
13.654KIPS DAVID38BELRCNAMUR1:08:471:08:473:48 15.826sen840GEMBLOUX
14.67FRENCKENS AN40BELSPORTIVAMENTE1:09:271:09:273:50 15.671ai1830ANDERLECHT
15.108BEUGNIES DAVID38BEL1:09:271:09:273:50 15.677sen827FONTAINE-VALMONT
16.620SCHOONJANS MICHEL48BELMYSTERE1:09:521:09:523:52 15.573ve1819UCCLE
17.342LOMBART FRÉDÉRIC54BELFLEUGAG1:10:121:10:123:53 15.502ve2813SAUVENIÈRE
18.188FVANDRIESSCHE CAROLINE39BELRCABWNAC1:11:331:11:333:57 15.211dam796THUILLIES
19.106NR 106 XXX1:11:361:11:363:57 15.201xxx793
20.302FMUNAUT CARINE58BELSERATHSERAING ATHLÉTI1:11:381:11:383:57 15.193ai2790LIMONT
21.1153FSCHOMMERS SANDRA37BEL1:12:091:12:093:59 15.082dam781BULLINGEN
22.626LAMBERT CARL58BELGAG1:12:121:12:123:59 15.073ve2778GRAND-MANIL
23.949DOUGOUD STÉPHANE58FRACFSMYSTERE1:12:201:12:204:00 15.044ve2774FOREST
24.66ROSSIGNOL OLIVIER51BELSPORTIVAMENTE1:12:241:12:244:00 15.035ve2770ANDERLECHT
25.612CHARLES CHRISTOPHE45BELCSFMYSTERE1:12:371:12:374:01 14.994ve1765FOREST
26.124LE CHARLIER BAUDOUIN71BEL1:12:511:12:514:01 14.941ve4760NAMUR
27.819FPIRSON FLORENCE49BELRIWA1:13:051:13:054:02 14.892ai1755GENVAL
28.153PALATE FABIAN51BEL1:13:121:13:124:03 14.876ve2751OPHAIN
29.196NR 196 XXX1:13:411:13:414:04 14.772xxx743
30.583VAN RAEMDONCK GILLES55BELRIWARIWA1:14:461:14:464:08 14.557ve2729LASNE
31.27CANIVET ROLAND74BELBOUFFIOLS1:14:471:14:474:08 14.552ve4726NALINNES
32.841SALVATO DOMENICO58ITACSFMYSTERE1:14:531:14:534:08 14.538ve2722BRUXELLES
33.122SCHALKWIJK BENOIT61BELFLEUTRAVEL2RUN1:15:231:15:234:10 14.442ve3715WANFERCEE BAULET
34.400NR 400 XXX1:15:521:15:524:12 14.343xxx707
35.390FGÉRARDIN BÉATRICE51FRAJACO1:16:091:16:094:12 14.294ai2701CHARLEVILLE-MÉZIÈRES
36.1101NR 1101 XXX1:18:281:18:284:20 13.874xxx676
37.623PISCART PIERRE61BELMOHAFORESTIERE1:18:471:18:474:21 13.813ve3671OBOURG
38.404TILBURGS FRANK54BELAVN1:19:041:19:044:22 13.769ve2665MEER
39.815DE PRINS JEAN-FRANÇOIS23BELRIWA1:19:311:19:314:24 13.698sen658GENVAL
40.737VROMMAN THIERRY60BELSPTWAVRE1:19:351:19:354:24 13.674ve3654DION-VALMONT
41.1014WEYNAND GREGORY49BEL1:20:281:20:284:27 13.525ve1644WEYWERTZ
42.1155NR 1155 XXX1:20:571:20:574:28 13.445xxx636
43.232GARCIA FRANÇOIS-DAVID45BEL1:21:131:21:134:29 13.406ve1631LONZÉE
44.983CULLOP PAUL60BELENJAMBEE1:22:091:22:094:32 13.245ve3620BRUXELLES
45.357FERAUCHE JEAN-MARIE72BELUAC1:22:431:22:434:34 13.163ve4612LES BONS VILLERS
46.199ALAIME SEBASTIEN49BEL1:23:381:23:384:37 13.017ve1601LIMAL
47.116NR 116 XXX1:24:201:24:204:40 12.906xxx592
48.747NR 747 XXX1:24:311:24:314:40 12.877xxx587
49.236DUYCK XAVIER54BEL1:24:441:24:444:41 12.8410ve2582SPY
50.449MARCHAL PATRICK60BELGAG1:26:001:26:004:45 12.656ve3569GEMBLOUX
DNF: did not finish; DSQ: disqualified; Speed in km/h
26/09/2021 - 04:39 - 114 Entries
ChronoRace - Electronic Timing SPRL
http://www.chronorace.be

Page 1 / 3  
La Châtelettaine - Edition Virtuelle
Course à pied Châtelet, 24/05/2021, BEL
Delhalle - Result
18.134km 
Category
PosNrNameAgeNATLeagueTeamRealTimeTkmMoy.PlaceNamePtsCity
51.725FTROUPIN CECILE47BELJC HSH1:27:291:27:294:50 12.443ai1554GERPINNES
52.493MOISE PATRICK61BELRCNAMU1:27:331:27:334:50 12.437ve3550JAMBES
53.543LAFORGE FREDERIC46BELWACOWACO1:28:031:28:034:52 12.368ve1543HANEFFE
54.322THONON OLIVIER49BEL1:28:081:28:084:52 12.359ve1539NEUPRÉ
55.850PENSEZ PIERRE58BELFORESTIERE1:28:391:28:394:54 12.2811ve2532MONS
56.61FKETELE CORALIE27BELFLEUGAG1:28:411:28:414:54 12.273dam529LONZÉE
57.695DE DAPPER DAVID48BELCSFMYSTERE1:28:481:28:484:54 12.2510ve1525FOREST
58.1100NR 1100 XXX1:29:201:29:204:56 12.188xxx518
59.640JUNGBLUTH RAYMOND71BEL1:29:431:29:434:57 12.134ve4512WELKENRAEDT
60.136FHAELTERMAN FLORENCE42BELSPTWAVRE1:29:471:29:474:58 12.124ai1508LIMAL
61.83PEETERS QUENTIN42BELSPTWAVRE1:30:081:30:084:59 12.0711ve1502LIMAL
62.969NR 969 XXX1:30:171:30:174:59 12.059xxx498
63.694FBAIJOT REGINE50BELJCCS1:31:161:31:165:02 11.925ai2488HOUDREMONT
64.216NR 216 XXX1:32:041:32:045:05 11.8210xxx478
65.1030FRÖHL LORENA22BELLAC EUPEN1:32:231:32:235:06 11.784dam473ROCHERATH
66.296DESSEILLE ERNEST67BELRCNAMUR1:32:481:32:485:08 11.738ve3467WÉPION
67.209FDA CRUZ COELHO KRISTELLE42BEL1:33:461:33:465:11 11.615ai1456HÉRON
68.22DE MASI GIANNI68ITAFLEU1:35:061:35:065:15 11.449ve3443ROSELIES
69.984BLONDEAUX YANNICK45BEL1:35:421:35:425:17 11.3712ve1435THY-LE-CHATEAU
70.789FCORDIER CHRISTINE55BEL1:35:461:35:465:17 11.366ai2432JUPRELLE
71.812BATISTIC PATRICK57BELRONVAU1:35:511:35:515:18 11.3512ve2428NALINNES
72.774NR 774 XXX1:35:571:35:575:18 11.3411xxx425
73.425DE GRAVE OLIVIER56BELCSFMYSTERE1:36:231:36:235:19 11.2913ve2419UCCLE
74.513DUFAUX RAPHAEL54BEL1:36:251:36:255:20 11.2814ve2415FLOREFFE
75.924GENICOT PASCAL59BELHACFOULÉES DU PLAI1:37:191:37:195:22 11.1815ve2406HERON
76.194AUBERT SERGE66BELCHUDONDORGANES1:37:441:37:445:24 11.1310ve3400GERPINNES
77.439DEWEZ QUENTIN34BEL1:37:461:37:465:24 11.139sen397SORINNE-LA-LONGUE
78.808FCHABEAU VINCIANE60BELANTILOB1:39:101:39:105:29 10.971ai3383COURT-SAINT-ETIENNE
79.301NR 301 XXX1:39:301:39:305:30 10.9412xxx378
80.144CORBIAUX CHRISTOPHE42BELRCNAMUR1:41:311:41:315:36 10.7213ve1361FLAWINNE
81.356SAUCIN LUC60BELRRTCHATELET1:41:321:41:325:36 10.7211ve3357CHÂTELET
82.1053BIRTU GEMECHU AMANUEL23ETH1:42:361:42:365:40 10.6110sen347LIMBOURG
83.839POUCET BENOIT56BELJACO1:44:411:44:415:47 10.3916ve2329SELOIGNES
84.395FOHAL JEAN-LUC56BELETCHIEVRES1:45:041:45:045:48 10.3617ve2323MESLIN-L'EVÊQUE
85.1171NR 1171 XXX1:45:091:45:095:48 10.3513xxx320
86.1136NAZÉ OLIVIER50BEL1:46:471:46:475:54 10.1918ve2306VEDRIN
87.10FHERCOT MARIE-ASTRID64BELRRTCHATELET1:47:161:47:165:55 10.142ai3300CHÂTELET
87.888NR 888 XXX1:47:161:47:165:55 10.1414xxx300
89.1141NR 1141 XXX1:49:291:49:296:03 9.9415xxx279
90.177HIGUET PI57BEL1:49:441:49:446:04 9.9219ve2274BEAURAING
91.713DUSSART JEAN-PIERRE72BELUAC1:49:501:49:506:04 9.915ve4271CHATELINEAU
92.1108RODRIQUE EMMANUEL54BELPUISSANCE HUY’T1:51:321:51:326:10 9.7620ve2257ANTHEIT
93.491NR 491 XXX1:54:161:54:166:19 9.5216xxx236
94.258PINON WILLIAM60BELENJAMBEE1:54:241:54:246:19 9.5112ve3232KRAAINEM
95.8ANTOINE ALAIN60BELRCNAMUR1:54:511:54:516:21 9.4713ve3227TEMPLOUX
96.350NR 350 XXX1:54:581:54:586:21 9.4617xxx223
97.974LESOIL PHILIPPE54BELENJAMBEE1:55:131:55:136:22 9.4421ve2218BRUXELLES
98.172SEPULCHRE MICHAËL65BEL1:56:331:56:336:26 9.3414ve3207RÊVES
99.745HARDMAN WILLY60BELENJAMBEE1:58:031:58:036:31 9.2215ve3195WOLUWÉ-SAINT-PIERRE
99.358FMATTHIEU FABIENNE56BELENJAMBEE1:58:031:58:036:31 9.227ai2195BRUXELLES
DNF: did not finish; DSQ: disqualified; Speed in km/h
26/09/2021 - 04:39 - 114 Entries
ChronoRace - Electronic Timing SPRL
http://www.chronorace.be

Page 2 / 3  
La Châtelettaine - Edition Virtuelle
Course à pied Châtelet, 24/05/2021, BEL
Delhalle - Result
18.134km 
Category
PosNrNameAgeNATLeagueTeamRealTimeTkmMoy.PlaceNamePtsCity
101.217NR 217 XXX1:59:351:59:356:36 9.1018xxx179
102.148FVAESSEN GHISLAINE58BELENJAMBEE1:59:451:59:456:37 9.098ai2176KRAAINEM
103.76FMORRIS NICOLA-ELIZABETH61BELENJAMBEE2:03:522:03:526:50 8.783ai3148BRUXELLES
104.660FPAULUS ROLANDE63BELJCHSH2:05:212:05:216:55 8.684ai3136HAM-SUR-HEURE
105.1106FDUPONT JACQUELINE37BEL2:06:592:06:597:01 8.575dam124ST. VITH
106.707NEMANN BRUNO39BELRCNAMUR2:08:252:08:257:05 8.4711sen113WARTET
106.1118NR 1118 XXX2:08:252:08:257:05 8.4719xxx113
108.105NR 105 XXX2:10:522:10:527:13 8.3120xxx93
109.834NR 834 XXX2:18:062:18:067:37 7.8821xxx51
110.971VANHEES JEAN-LOUIS68BEL2:21:052:21:057:47 7.7116ve333PERWEZ
111.562HENZ HELMUT82BELSCBUTG2:25:122:25:128:01 7.496ve411BÜTGENBACH
112.1055FTHEISSEN SIMONE37BEL2:31:122:31:128:21 7.206dam8BÜLLINGEN
113.1061WIESEMES DANIEL52BELSCB2:47:152:47:159:14 6.5122ve25BÜTGENBACH
114.1151NR 1151 XXX3:19:463:19:4611:01 5.4522xxx2
DNF: did not finish; DSQ: disqualified; Speed in km/h
26/09/2021 - 04:39 - 114 Entries
ChronoRace - Electronic Timing SPRL
http://www.chronorace.be

Page 3 / 3